sensor_id;sensor_type;location;lat;lon;timestamp;P1;durP1;ratioP1;P2;durP2;ratioP2
43823;SDS011;29470;53.550;9.926;2022-11-13T00:02:42;20.48;;;12.02;;
43823;SDS011;29470;53.550;9.926;2022-11-13T00:08:05;21.13;;;12.70;;
43823;SDS011;29470;53.550;9.926;2022-11-13T00:13:27;21.75;;;12.75;;
43823;SDS011;29470;53.550;9.926;2022-11-13T00:18:52;24.45;;;12.57;;
43823;SDS011;29470;53.550;9.926;2022-11-13T00:24:15;21.92;;;12.90;;
43823;SDS011;29470;53.550;9.926;2022-11-13T00:29:36;23.83;;;13.27;;
43823;SDS011;29470;53.550;9.926;2022-11-13T00:34:58;26.48;;;13.77;;
43823;SDS011;29470;53.550;9.926;2022-11-13T00:40:20;24.55;;;13.60;;
43823;SDS011;29470;53.550;9.926;2022-11-13T00:45:58;23.57;;;13.40;;
43823;SDS011;29470;53.550;9.926;2022-11-13T00:52:16;25.92;;;13.70;;
43823;SDS011;29470;53.550;9.926;2022-11-13T00:57:39;25.52;;;13.45;;
43823;SDS011;29470;53.550;9.926;2022-11-13T01:03:00;21.77;;;12.98;;
43823;SDS011;29470;53.550;9.926;2022-11-13T01:08:22;25.52;;;14.32;;
43823;SDS011;29470;53.550;9.926;2022-11-13T01:13:46;23.25;;;13.68;;
43823;SDS011;29470;53.550;9.926;2022-11-13T01:19:08;22.88;;;14.45;;
43823;SDS011;29470;53.550;9.926;2022-11-13T01:24:30;26.75;;;14.63;;
43823;SDS011;29470;53.550;9.926;2022-11-13T01:29:52;27.58;;;13.75;;
43823;SDS011;29470;53.550;9.926;2022-11-13T01:35:14;25.58;;;13.80;;
43823;SDS011;29470;53.550;9.926;2022-11-13T01:40:41;27.08;;;15.02;;
43823;SDS011;29470;53.550;9.926;2022-11-13T01:46:10;27.48;;;15.18;;
43823;SDS011;29470;53.550;9.926;2022-11-13T01:51:36;22.75;;;14.18;;
43823;SDS011;29470;53.550;9.926;2022-11-13T01:57:00;24.33;;;14.65;;
43823;SDS011;29470;53.550;9.926;2022-11-13T02:02:25;25.52;;;14.90;;
43823;SDS011;29470;53.550;9.926;2022-11-13T02:07:46;26.05;;;14.82;;
43823;SDS011;29470;53.550;9.926;2022-11-13T02:13:09;25.45;;;14.70;;
43823;SDS011;29470;53.550;9.926;2022-11-13T02:18:33;26.33;;;14.00;;
43823;SDS011;29470;53.550;9.926;2022-11-13T02:23:59;25.63;;;13.45;;
43823;SDS011;29470;53.550;9.926;2022-11-13T02:29:33;25.63;;;14.70;;
43823;SDS011;29470;53.550;9.926;2022-11-13T02:34:54;26.55;;;15.35;;
43823;SDS011;29470;53.550;9.926;2022-11-13T02:40:17;24.85;;;14.80;;
43823;SDS011;29470;53.550;9.926;2022-11-13T02:45:39;27.25;;;14.85;;
43823;SDS011;29470;53.550;9.926;2022-11-13T02:51:00;25.52;;;15.50;;
43823;SDS011;29470;53.550;9.926;2022-11-13T02:56:23;28.65;;;15.63;;
43823;SDS011;29470;53.550;9.926;2022-11-13T03:01:45;27.38;;;15.40;;
43823;SDS011;29470;53.550;9.926;2022-11-13T03:07:07;26.85;;;14.75;;
43823;SDS011;29470;53.550;9.926;2022-11-13T03:12:29;27.92;;;15.70;;
43823;SDS011;29470;53.550;9.926;2022-11-13T03:17:50;30.10;;;15.48;;
43823;SDS011;29470;53.550;9.926;2022-11-13T03:23:12;26.85;;;15.20;;
43823;SDS011;29470;53.550;9.926;2022-11-13T03:28:35;27.48;;;16.38;;
43823;SDS011;29470;53.550;9.926;2022-11-13T03:33:57;30.15;;;17.30;;
43823;SDS011;29470;53.550;9.926;2022-11-13T03:39:18;41.95;;;21.30;;
43823;SDS011;29470;53.550;9.926;2022-11-13T03:44:41;32.00;;;16.35;;
43823;SDS011;29470;53.550;9.926;2022-11-13T03:50:03;30.90;;;16.27;;
43823;SDS011;29470;53.550;9.926;2022-11-13T03:55:25;29.35;;;16.15;;
43823;SDS011;29470;53.550;9.926;2022-11-13T04:00:48;25.30;;;14.57;;
43823;SDS011;29470;53.550;9.926;2022-11-13T04:06:09;27.02;;;15.57;;
43823;SDS011;29470;53.550;9.926;2022-11-13T04:11:30;30.95;;;15.93;;
43823;SDS011;29470;53.550;9.926;2022-11-13T04:16:53;30.30;;;16.27;;
43823;SDS011;29470;53.550;9.926;2022-11-13T04:22:14;26.75;;;16.65;;
43823;SDS011;29470;53.550;9.926;2022-11-13T04:27:35;28.60;;;17.00;;
43823;SDS011;29470;53.550;9.926;2022-11-13T04:32:58;29.25;;;16.67;;
43823;SDS011;29470;53.550;9.926;2022-11-13T04:38:19;29.02;;;16.50;;
43823;SDS011;29470;53.550;9.926;2022-11-13T04:43:41;29.02;;;15.25;;
43823;SDS011;29470;53.550;9.926;2022-11-13T04:49:03;33.03;;;17.13;;
43823;SDS011;29470;53.550;9.926;2022-11-13T04:54:25;27.45;;;16.02;;
43823;SDS011;29470;53.550;9.926;2022-11-13T04:59:47;29.08;;;15.60;;
43823;SDS011;29470;53.550;9.926;2022-11-13T05:05:10;29.55;;;16.85;;
43823;SDS011;29470;53.550;9.926;2022-11-13T05:10:32;31.02;;;16.63;;
43823;SDS011;29470;53.550;9.926;2022-11-13T05:15:58;28.13;;;16.10;;
43823;SDS011;29470;53.550;9.926;2022-11-13T05:21:21;29.10;;;16.80;;
43823;SDS011;29470;53.550;9.926;2022-11-13T05:26:43;30.08;;;17.50;;
43823;SDS011;29470;53.550;9.926;2022-11-13T05:32:04;34.58;;;18.33;;
43823;SDS011;29470;53.550;9.926;2022-11-13T05:37:26;35.33;;;17.83;;
43823;SDS011;29470;53.550;9.926;2022-11-13T05:42:48;36.17;;;18.50;;
43823;SDS011;29470;53.550;9.926;2022-11-13T05:48:09;32.95;;;18.08;;
43823;SDS011;29470;53.550;9.926;2022-11-13T05:53:34;34.80;;;17.63;;
43823;SDS011;29470;53.550;9.926;2022-11-13T05:58:57;40.33;;;19.55;;
43823;SDS011;29470;53.550;9.926;2022-11-13T06:04:20;31.83;;;17.42;;
43823;SDS011;29470;53.550;9.926;2022-11-13T06:09:46;37.75;;;18.77;;
43823;SDS011;29470;53.550;9.926;2022-11-13T06:15:07;36.15;;;17.98;;
43823;SDS011;29470;53.550;9.926;2022-11-13T06:20:29;29.67;;;16.83;;
43823;SDS011;29470;53.550;9.926;2022-11-13T06:25:52;31.23;;;17.25;;
43823;SDS011;29470;53.550;9.926;2022-11-13T06:31:20;29.67;;;16.17;;
43823;SDS011;29470;53.550;9.926;2022-11-13T06:36:43;28.83;;;16.50;;
43823;SDS011;29470;53.550;9.926;2022-11-13T06:42:06;33.78;;;18.02;;
43823;SDS011;29470;53.550;9.926;2022-11-13T06:47:27;30.23;;;17.02;;
43823;SDS011;29470;53.550;9.926;2022-11-13T06:52:48;29.17;;;16.95;;
43823;SDS011;29470;53.550;9.926;2022-11-13T06:58:11;30.90;;;18.60;;
43823;SDS011;29470;53.550;9.926;2022-11-13T07:03:32;30.35;;;16.27;;
43823;SDS011;29470;53.550;9.926;2022-11-13T07:08:54;33.08;;;17.75;;
43823;SDS011;29470;53.550;9.926;2022-11-13T07:14:17;30.80;;;15.90;;
43823;SDS011;29470;53.550;9.926;2022-11-13T07:19:38;31.30;;;17.13;;
43823;SDS011;29470;53.550;9.926;2022-11-13T07:24:59;28.35;;;16.10;;
43823;SDS011;29470;53.550;9.926;2022-11-13T07:30:22;30.98;;;16.65;;
43823;SDS011;29470;53.550;9.926;2022-11-13T07:35:44;34.15;;;16.88;;
43823;SDS011;29470;53.550;9.926;2022-11-13T07:41:05;34.60;;;16.98;;
43823;SDS011;29470;53.550;9.926;2022-11-13T07:46:28;32.90;;;16.15;;
43823;SDS011;29470;53.550;9.926;2022-11-13T07:51:50;32.78;;;16.10;;
43823;SDS011;29470;53.550;9.926;2022-11-13T07:57:11;31.88;;;16.45;;
43823;SDS011;29470;53.550;9.926;2022-11-13T08:02:34;32.58;;;15.85;;
43823;SDS011;29470;53.550;9.926;2022-11-13T08:07:56;35.85;;;16.20;;
43823;SDS011;29470;53.550;9.926;2022-11-13T08:13:17;29.35;;;14.38;;
43823;SDS011;29470;53.550;9.926;2022-11-13T08:18:39;31.38;;;14.80;;
43823;SDS011;29470;53.550;9.926;2022-11-13T08:24:01;32.85;;;14.50;;
43823;SDS011;29470;53.550;9.926;2022-11-13T08:29:22;38.13;;;16.63;;
43823;SDS011;29470;53.550;9.926;2022-11-13T08:34:45;34.58;;;15.25;;
43823;SDS011;29470;53.550;9.926;2022-11-13T08:40:07;35.92;;;15.23;;
43823;SDS011;29470;53.550;9.926;2022-11-13T08:45:29;36.03;;;15.15;;
43823;SDS011;29470;53.550;9.926;2022-11-13T08:50:53;34.67;;;15.07;;
43823;SDS011;29470;53.550;9.926;2022-11-13T08:56:15;31.33;;;13.75;;
43823;SDS011;29470;53.550;9.926;2022-11-13T09:01:36;32.97;;;15.00;;
43823;SDS011;29470;53.550;9.926;2022-11-13T09:06:59;35.47;;;15.05;;
43823;SDS011;29470;53.550;9.926;2022-11-13T09:12:20;32.20;;;13.20;;
43823;SDS011;29470;53.550;9.926;2022-11-13T09:17:42;31.55;;;13.73;;
43823;SDS011;29470;53.550;9.926;2022-11-13T09:23:09;38.78;;;14.95;;
43823;SDS011;29470;53.550;9.926;2022-11-13T09:28:31;31.92;;;14.13;;
43823;SDS011;29470;53.550;9.926;2022-11-13T09:33:54;33.78;;;14.35;;
43823;SDS011;29470;53.550;9.926;2022-11-13T09:39:16;37.22;;;15.63;;
43823;SDS011;29470;53.550;9.926;2022-11-13T09:44:39;39.42;;;15.70;;
43823;SDS011;29470;53.550;9.926;2022-11-13T09:50:08;36.80;;;15.98;;
43823;SDS011;29470;53.550;9.926;2022-11-13T09:55:40;44.33;;;18.02;;
43823;SDS011;29470;53.550;9.926;2022-11-13T10:01:09;38.83;;;17.33;;
43823;SDS011;29470;53.550;9.926;2022-11-13T10:06:53;37.42;;;16.73;;
43823;SDS011;29470;53.550;9.926;2022-11-13T10:12:32;40.83;;;17.73;;
43823;SDS011;29470;53.550;9.926;2022-11-13T10:17:56;45.40;;;18.67;;
43823;SDS011;29470;53.550;9.926;2022-11-13T10:23:23;42.25;;;18.30;;
43823;SDS011;29470;53.550;9.926;2022-11-13T10:28:50;39.67;;;18.50;;
43823;SDS011;29470;53.550;9.926;2022-11-13T10:34:18;39.05;;;17.75;;
43823;SDS011;29470;53.550;9.926;2022-11-13T10:39:41;39.05;;;17.77;;
43823;SDS011;29470;53.550;9.926;2022-11-13T10:45:12;34.90;;;17.30;;
43823;SDS011;29470;53.550;9.926;2022-11-13T10:50:34;34.65;;;16.67;;
43823;SDS011;29470;53.550;9.926;2022-11-13T10:55:56;34.35;;;17.23;;
43823;SDS011;29470;53.550;9.926;2022-11-13T11:01:21;39.33;;;19.05;;
43823;SDS011;29470;53.550;9.926;2022-11-13T11:06:46;30.60;;;16.08;;
43823;SDS011;29470;53.550;9.926;2022-11-13T11:12:28;32.08;;;16.20;;
43823;SDS011;29470;53.550;9.926;2022-11-13T11:17:53;34.85;;;15.73;;
43823;SDS011;29470;53.550;9.926;2022-11-13T11:23:22;29.67;;;15.30;;
43823;SDS011;29470;53.550;9.926;2022-11-13T11:28:48;34.00;;;16.80;;
43823;SDS011;29470;53.550;9.926;2022-11-13T11:34:16;36.38;;;16.92;;
43823;SDS011;29470;53.550;9.926;2022-11-13T11:39:45;35.37;;;17.00;;
43823;SDS011;29470;53.550;9.926;2022-11-13T11:45:11;36.50;;;17.58;;
43823;SDS011;29470;53.550;9.926;2022-11-13T11:50:44;34.70;;;16.92;;
43823;SDS011;29470;53.550;9.926;2022-11-13T11:56:21;38.35;;;16.83;;
43823;SDS011;29470;53.550;9.926;2022-11-13T12:08:02;32.72;;;15.98;;
43823;SDS011;29470;53.550;9.926;2022-11-13T12:13:33;32.10;;;16.30;;
43823;SDS011;29470;53.550;9.926;2022-11-13T12:19:02;33.05;;;16.15;;
43823;SDS011;29470;53.550;9.926;2022-11-13T12:24:35;33.65;;;16.15;;
43823;SDS011;29470;53.550;9.926;2022-11-13T12:30:11;30.75;;;15.05;;
43823;SDS011;29470;53.550;9.926;2022-11-13T12:35:36;31.30;;;16.40;;
43823;SDS011;29470;53.550;9.926;2022-11-13T12:41:01;28.05;;;14.07;;
43823;SDS011;29470;53.550;9.926;2022-11-13T12:46:33;25.05;;;14.13;;
43823;SDS011;29470;53.550;9.926;2022-11-13T12:51:57;23.13;;;12.75;;
43823;SDS011;29470;53.550;9.926;2022-11-13T12:57:22;25.38;;;13.68;;
43823;SDS011;29470;53.550;9.926;2022-11-13T13:02:52;24.65;;;13.75;;
43823;SDS011;29470;53.550;9.926;2022-11-13T13:08:26;22.58;;;12.40;;
43823;SDS011;29470;53.550;9.926;2022-11-13T13:14:04;26.00;;;13.38;;
43823;SDS011;29470;53.550;9.926;2022-11-13T13:19:43;24.15;;;12.27;;
43823;SDS011;29470;53.550;9.926;2022-11-13T13:25:06;24.92;;;12.90;;
43823;SDS011;29470;53.550;9.926;2022-11-13T13:30:46;24.13;;;12.48;;
43823;SDS011;29470;53.550;9.926;2022-11-13T13:36:19;22.35;;;12.32;;
43823;SDS011;29470;53.550;9.926;2022-11-13T13:41:54;22.45;;;12.50;;
43823;SDS011;29470;53.550;9.926;2022-11-13T13:47:38;24.50;;;12.55;;
43823;SDS011;29470;53.550;9.926;2022-11-13T13:53:03;25.00;;;12.68;;
43823;SDS011;29470;53.550;9.926;2022-11-13T13:58:26;22.42;;;12.38;;
43823;SDS011;29470;53.550;9.926;2022-11-13T14:04:02;22.48;;;12.23;;
43823;SDS011;29470;53.550;9.926;2022-11-13T14:09:26;22.73;;;12.60;;
43823;SDS011;29470;53.550;9.926;2022-11-13T14:14:48;22.17;;;12.52;;
43823;SDS011;29470;53.550;9.926;2022-11-13T14:20:11;22.73;;;13.55;;
43823;SDS011;29470;53.550;9.926;2022-11-13T14:25:33;25.35;;;13.73;;
43823;SDS011;29470;53.550;9.926;2022-11-13T14:30:55;27.00;;;14.30;;
43823;SDS011;29470;53.550;9.926;2022-11-13T14:36:25;28.00;;;14.93;;
43823;SDS011;29470;53.550;9.926;2022-11-13T14:41:50;30.45;;;15.52;;
43823;SDS011;29470;53.550;9.926;2022-11-13T14:47:22;38.85;;;18.00;;
43823;SDS011;29470;53.550;9.926;2022-11-13T14:52:55;34.00;;;16.92;;
43823;SDS011;29470;53.550;9.926;2022-11-13T14:58:25;38.03;;;18.58;;
43823;SDS011;29470;53.550;9.926;2022-11-13T15:03:47;36.30;;;17.95;;
43823;SDS011;29470;53.550;9.926;2022-11-13T15:09:14;38.92;;;19.05;;
43823;SDS011;29470;53.550;9.926;2022-11-13T15:14:37;37.47;;;17.63;;
43823;SDS011;29470;53.550;9.926;2022-11-13T15:20:01;35.70;;;17.42;;
43823;SDS011;29470;53.550;9.926;2022-11-13T15:25:29;37.22;;;16.90;;
43823;SDS011;29470;53.550;9.926;2022-11-13T15:30:50;35.30;;;16.25;;
43823;SDS011;29470;53.550;9.926;2022-11-13T15:36:12;27.90;;;12.77;;
43823;SDS011;29470;53.550;9.926;2022-11-13T15:41:35;25.27;;;12.27;;
43823;SDS011;29470;53.550;9.926;2022-11-13T15:46:56;23.75;;;12.38;;
43823;SDS011;29470;53.550;9.926;2022-11-13T15:52:18;22.55;;;12.10;;
43823;SDS011;29470;53.550;9.926;2022-11-13T15:57:41;20.77;;;10.93;;
43823;SDS011;29470;53.550;9.926;2022-11-13T16:03:03;18.17;;;9.32;;
43823;SDS011;29470;53.550;9.926;2022-11-13T16:08:30;14.55;;;7.72;;
43823;SDS011;29470;53.550;9.926;2022-11-13T16:13:52;16.40;;;7.38;;
43823;SDS011;29470;53.550;9.926;2022-11-13T16:19:15;12.13;;;7.05;;
43823;SDS011;29470;53.550;9.926;2022-11-13T16:24:42;12.40;;;6.95;;
43823;SDS011;29470;53.550;9.926;2022-11-13T16:30:08;12.50;;;6.53;;
43823;SDS011;29470;53.550;9.926;2022-11-13T16:35:33;15.95;;;7.85;;
43823;SDS011;29470;53.550;9.926;2022-11-13T16:40:56;12.55;;;6.47;;
43823;SDS011;29470;53.550;9.926;2022-11-13T16:46:19;12.25;;;6.07;;
43823;SDS011;29470;53.550;9.926;2022-11-13T16:51:46;11.68;;;5.40;;
43823;SDS011;29470;53.550;9.926;2022-11-13T16:57:10;12.40;;;6.80;;
43823;SDS011;29470;53.550;9.926;2022-11-13T17:02:34;9.93;;;5.82;;
43823;SDS011;29470;53.550;9.926;2022-11-13T17:07:58;9.85;;;5.50;;
43823;SDS011;29470;53.550;9.926;2022-11-13T17:13:20;10.65;;;5.80;;
43823;SDS011;29470;53.550;9.926;2022-11-13T17:24:35;12.82;;;6.93;;
43823;SDS011;29470;53.550;9.926;2022-11-13T17:29:57;10.20;;;5.22;;
43823;SDS011;29470;53.550;9.926;2022-11-13T17:35:21;8.80;;;5.50;;
43823;SDS011;29470;53.550;9.926;2022-11-13T17:40:42;8.55;;;5.03;;
43823;SDS011;29470;53.550;9.926;2022-11-13T17:46:04;10.68;;;5.55;;
43823;SDS011;29470;53.550;9.926;2022-11-13T17:51:27;10.43;;;5.63;;
43823;SDS011;29470;53.550;9.926;2022-11-13T17:56:49;8.18;;;5.40;;
43823;SDS011;29470;53.550;9.926;2022-11-13T18:02:10;11.13;;;6.53;;
43823;SDS011;29470;53.550;9.926;2022-11-13T18:07:33;11.13;;;6.05;;
43823;SDS011;29470;53.550;9.926;2022-11-13T18:12:54;10.90;;;6.30;;
43823;SDS011;29470;53.550;9.926;2022-11-13T18:18:16;9.93;;;5.90;;
43823;SDS011;29470;53.550;9.926;2022-11-13T18:23:38;12.43;;;6.38;;
43823;SDS011;29470;53.550;9.926;2022-11-13T18:29:01;10.90;;;6.43;;
43823;SDS011;29470;53.550;9.926;2022-11-13T18:34:23;10.85;;;6.72;;
43823;SDS011;29470;53.550;9.926;2022-11-13T18:39:48;10.50;;;6.10;;
43823;SDS011;29470;53.550;9.926;2022-11-13T18:45:10;11.95;;;7.18;;
43823;SDS011;29470;53.550;9.926;2022-11-13T18:50:35;10.50;;;6.68;;
43823;SDS011;29470;53.550;9.926;2022-11-13T18:55:58;15.32;;;7.57;;
43823;SDS011;29470;53.550;9.926;2022-11-13T19:01:21;13.32;;;7.88;;
43823;SDS011;29470;53.550;9.926;2022-11-13T19:06:44;13.80;;;8.00;;
43823;SDS011;29470;53.550;9.926;2022-11-13T19:12:07;12.23;;;7.40;;
43823;SDS011;29470;53.550;9.926;2022-11-13T19:17:29;13.85;;;8.07;;
43823;SDS011;29470;53.550;9.926;2022-11-13T19:22:50;13.80;;;7.38;;
43823;SDS011;29470;53.550;9.926;2022-11-13T19:28:14;14.73;;;8.35;;
43823;SDS011;29470;53.550;9.926;2022-11-13T19:33:36;16.50;;;8.60;;
43823;SDS011;29470;53.550;9.926;2022-11-13T19:39:01;17.33;;;9.25;;
43823;SDS011;29470;53.550;9.926;2022-11-13T19:44:24;16.05;;;9.13;;
43823;SDS011;29470;53.550;9.926;2022-11-13T19:49:46;23.10;;;11.57;;
43823;SDS011;29470;53.550;9.926;2022-11-13T19:55:08;23.45;;;11.98;;
43823;SDS011;29470;53.550;9.926;2022-11-13T20:00:33;22.33;;;11.48;;
43823;SDS011;29470;53.550;9.926;2022-11-13T20:05:55;22.40;;;11.15;;
43823;SDS011;29470;53.550;9.926;2022-11-13T20:11:18;22.75;;;11.48;;
43823;SDS011;29470;53.550;9.926;2022-11-13T20:16:41;27.08;;;13.98;;
43823;SDS011;29470;53.550;9.926;2022-11-13T20:22:02;26.67;;;14.23;;
43823;SDS011;29470;53.550;9.926;2022-11-13T20:27:24;28.13;;;14.02;;
43823;SDS011;29470;53.550;9.926;2022-11-13T20:32:49;29.95;;;15.15;;
43823;SDS011;29470;53.550;9.926;2022-11-13T20:38:13;28.05;;;15.05;;
43823;SDS011;29470;53.550;9.926;2022-11-13T20:43:36;28.98;;;16.05;;
43823;SDS011;29470;53.550;9.926;2022-11-13T20:48:59;28.95;;;16.23;;
43823;SDS011;29470;53.550;9.926;2022-11-13T20:54:21;33.40;;;16.58;;
43823;SDS011;29470;53.550;9.926;2022-11-13T20:59:42;32.53;;;16.45;;
43823;SDS011;29470;53.550;9.926;2022-11-13T21:05:06;30.08;;;16.65;;
43823;SDS011;29470;53.550;9.926;2022-11-13T21:10:27;30.48;;;16.35;;
43823;SDS011;29470;53.550;9.926;2022-11-13T21:15:53;32.92;;;16.80;;
43823;SDS011;29470;53.550;9.926;2022-11-13T21:21:16;31.55;;;16.23;;
43823;SDS011;29470;53.550;9.926;2022-11-13T21:26:39;31.13;;;16.02;;
43823;SDS011;29470;53.550;9.926;2022-11-13T21:32:00;31.65;;;17.23;;
43823;SDS011;29470;53.550;9.926;2022-11-13T21:37:23;30.77;;;16.83;;
43823;SDS011;29470;53.550;9.926;2022-11-13T21:42:45;32.25;;;16.67;;
43823;SDS011;29470;53.550;9.926;2022-11-13T21:48:07;33.10;;;16.90;;
43823;SDS011;29470;53.550;9.926;2022-11-13T21:53:29;30.25;;;16.00;;
43823;SDS011;29470;53.550;9.926;2022-11-13T21:58:51;35.28;;;17.42;;
43823;SDS011;29470;53.550;9.926;2022-11-13T22:04:14;33.90;;;17.77;;
43823;SDS011;29470;53.550;9.926;2022-11-13T22:09:37;34.08;;;17.50;;
43823;SDS011;29470;53.550;9.926;2022-11-13T22:14:59;35.63;;;18.02;;
43823;SDS011;29470;53.550;9.926;2022-11-13T22:20:20;37.63;;;19.05;;
43823;SDS011;29470;53.550;9.926;2022-11-13T22:25:43;36.50;;;19.00;;
43823;SDS011;29470;53.550;9.926;2022-11-13T22:31:04;39.65;;;18.83;;
43823;SDS011;29470;53.550;9.926;2022-11-13T22:36:28;41.40;;;17.65;;
43823;SDS011;29470;53.550;9.926;2022-11-13T22:41:52;37.20;;;19.20;;
43823;SDS011;29470;53.550;9.926;2022-11-13T22:47:13;34.45;;;18.23;;
43823;SDS011;29470;53.550;9.926;2022-11-13T22:52:34;37.05;;;18.13;;
43823;SDS011;29470;53.550;9.926;2022-11-13T22:57:57;38.13;;;18.25;;
43823;SDS011;29470;53.550;9.926;2022-11-13T23:03:19;38.30;;;18.70;;
43823;SDS011;29470;53.550;9.926;2022-11-13T23:08:40;36.80;;;18.98;;
43823;SDS011;29470;53.550;9.926;2022-11-13T23:14:04;38.95;;;18.85;;
43823;SDS011;29470;53.550;9.926;2022-11-13T23:19:27;38.30;;;18.25;;
43823;SDS011;29470;53.550;9.926;2022-11-13T23:24:49;41.75;;;18.80;;
43823;SDS011;29470;53.550;9.926;2022-11-13T23:30:12;37.80;;;19.30;;
43823;SDS011;29470;53.550;9.926;2022-11-13T23:35:34;39.25;;;19.20;;
43823;SDS011;29470;53.550;9.926;2022-11-13T23:40:56;38.67;;;17.40;;
43823;SDS011;29470;53.550;9.926;2022-11-13T23:46:19;43.08;;;19.10;;
43823;SDS011;29470;53.550;9.926;2022-11-13T23:51:40;39.35;;;18.98;;
43823;SDS011;29470;53.550;9.926;2022-11-13T23:57:02;43.85;;;19.55;;
